Beira Airport

Airport
ICAO code: 
FQBR
IATA Code: 
BEW
Summary
ICAO Region: 
AFI
Territory: 
Location: 
Beira,
Serving: 
Beira
Elevation: 
33 ft
Coordinates: 
Aerial View: 
19° 47' 48.563" S, 34° 54' 31.669" E
Metar
Observation
FQBR 300300Z 33003KT 9999 SCT018 21/18 Q1012
Station
Beira
Date/Time
2021-11-30 03:00:00
Wind direction
330°
Wind speed
03 kts
Lowest cloud amount
scattered clouds
Temperature
21°C
Dew point
18°C
Humidity
83%
QNH
1012 hPa
Weather condition
n/a

Runways

Designator Length Width Surface Rops
6/24 920 45 ASP Yes/Yes
17/35 1725 45 ASP Yes/Yes
12/30 2400 45 ASP Yes/Yes
Airport map: 
Aerial View: 

SKYbrary Partners:

Safety knowledge contributed by: